National Weather Service Raw Text Product

Displaying AFOS PIL: TAFMCW Received: 2018-06-14 02:51 UTC


440 
FTUS43 KDMX 140251 AAA
TAFMCW
TAF AMD
KMCW 140251Z 1403/1424 17005KT P6SM VCSH SCT050 OVC100
     FM140400 17004KT P6SM SCT070 BKN150
     FM141500 15013KT P6SM BKN110=